Terminal Aerodrome Forecast
Issued by NWS Knoxville/Tri Cities, TN

Home | Current Version | Previous Version | Text Only | Print | Product List | Glossary On
Versions: 1 2 3 4 5 6 7 8 9 10 11 12 13 14 15
000
FTUS44 KMRX 051123
TAFTRI
TAF
KTRI 051123Z 0512/0612 28008KT P6SM BKN050
     FM051400 28012KT P6SM VCSH BKN040
     FM052300 28007KT 5SM -SHRA BR SCT015 OVC030=

USA.gov is the U.S. government's official web portal to all federal, state and local government web resources and services.